sensor_id;sensor_type;location;lat;lon;timestamp;P1;durP1;ratioP1;P2;durP2;ratioP2
65636;SDS011;52327;42.622;23.316;2024-02-23T00:00:24;4.32;;;1.88;;
65636;SDS011;52327;42.622;23.316;2024-02-23T00:02:49;1.95;;;1.27;;
65636;SDS011;52327;42.622;23.316;2024-02-23T00:05:22;2.67;;;1.25;;
65636;SDS011;52327;42.622;23.316;2024-02-23T00:07:48;1.67;;;1.58;;
65636;SDS011;52327;42.622;23.316;2024-02-23T00:10:14;3.13;;;1.80;;
65636;SDS011;52327;42.622;23.316;2024-02-23T00:12:40;1.75;;;1.48;;
65636;SDS011;52327;42.622;23.316;2024-02-23T00:15:06;2.00;;;1.20;;
65636;SDS011;52327;42.622;23.316;2024-02-23T00:17:32;1.38;;;0.95;;
65636;SDS011;52327;42.622;23.316;2024-02-23T00:20:00;1.70;;;1.60;;
65636;SDS011;52327;42.622;23.316;2024-02-23T00:22:26;0.93;;;0.93;;
65636;SDS011;52327;42.622;23.316;2024-02-23T00:24:57;1.00;;;0.85;;
65636;SDS011;52327;42.622;23.316;2024-02-23T00:27:23;1.60;;;1.00;;
65636;SDS011;52327;42.622;23.316;2024-02-23T00:29:51;1.38;;;0.93;;
65636;SDS011;52327;42.622;23.316;2024-02-23T00:32:16;0.85;;;0.82;;
65636;SDS011;52327;42.622;23.316;2024-02-23T00:34:45;1.55;;;1.45;;
65636;SDS011;52327;42.622;23.316;2024-02-23T00:37:15;4.93;;;1.52;;
65636;SDS011;52327;42.622;23.316;2024-02-23T00:39:44;1.38;;;1.13;;
65636;SDS011;52327;42.622;23.316;2024-02-23T00:42:16;2.72;;;2.33;;
65636;SDS011;52327;42.622;23.316;2024-02-23T00:44:46;2.53;;;1.60;;
65636;SDS011;52327;42.622;23.316;2024-02-23T00:47:11;4.03;;;2.33;;
65636;SDS011;52327;42.622;23.316;2024-02-23T00:49:40;1.20;;;0.98;;
65636;SDS011;52327;42.622;23.316;2024-02-23T00:52:05;3.17;;;1.67;;
65636;SDS011;52327;42.622;23.316;2024-02-23T00:54:31;1.88;;;1.70;;
65636;SDS011;52327;42.622;23.316;2024-02-23T00:56:57;2.30;;;1.48;;
65636;SDS011;52327;42.622;23.316;2024-02-23T00:59:22;2.70;;;2.00;;
65636;SDS011;52327;42.622;23.316;2024-02-23T01:01:51;4.75;;;2.90;;
65636;SDS011;52327;42.622;23.316;2024-02-23T01:04:20;1.73;;;1.48;;
65636;SDS011;52327;42.622;23.316;2024-02-23T01:06:50;2.08;;;1.88;;
65636;SDS011;52327;42.622;23.316;2024-02-23T01:09:29;1.60;;;1.42;;
65636;SDS011;52327;42.622;23.316;2024-02-23T01:11:59;1.85;;;1.50;;
65636;SDS011;52327;42.622;23.316;2024-02-23T01:14:31;1.13;;;0.95;;
65636;SDS011;52327;42.622;23.316;2024-02-23T01:16:56;1.70;;;1.50;;
65636;SDS011;52327;42.622;23.316;2024-02-23T01:19:22;3.22;;;2.38;;
65636;SDS011;52327;42.622;23.316;2024-02-23T01:21:50;2.13;;;1.38;;
65636;SDS011;52327;42.622;23.316;2024-02-23T01:24:24;1.98;;;1.50;;
65636;SDS011;52327;42.622;23.316;2024-02-23T01:26:51;5.03;;;2.17;;
65636;SDS011;52327;42.622;23.316;2024-02-23T01:29:16;5.35;;;1.85;;
65636;SDS011;52327;42.622;23.316;2024-02-23T01:31:53;2.55;;;1.08;;
65636;SDS011;52327;42.622;23.316;2024-02-23T01:34:23;4.15;;;2.60;;
65636;SDS011;52327;42.622;23.316;2024-02-23T01:36:48;2.85;;;1.77;;
65636;SDS011;52327;42.622;23.316;2024-02-23T01:39:14;4.57;;;2.08;;
65636;SDS011;52327;42.622;23.316;2024-02-23T01:41:39;1.98;;;1.33;;
65636;SDS011;52327;42.622;23.316;2024-02-23T01:44:16;1.00;;;0.95;;
65636;SDS011;52327;42.622;23.316;2024-02-23T01:46:46;2.53;;;1.38;;
65636;SDS011;52327;42.622;23.316;2024-02-23T01:52:12;8.32;;;2.63;;
65636;SDS011;52327;42.622;23.316;2024-02-23T01:54:44;4.90;;;2.78;;
65636;SDS011;52327;42.622;23.316;2024-02-23T01:57:10;3.95;;;2.65;;
65636;SDS011;52327;42.622;23.316;2024-02-23T01:59:39;3.95;;;2.30;;
65636;SDS011;52327;42.622;23.316;2024-02-23T02:02:08;7.25;;;2.05;;
65636;SDS011;52327;42.622;23.316;2024-02-23T02:04:40;2.05;;;1.13;;
65636;SDS011;52327;42.622;23.316;2024-02-23T02:07:07;1.52;;;1.30;;
65636;SDS011;52327;42.622;23.316;2024-02-23T02:09:38;2.63;;;1.27;;
65636;SDS011;52327;42.622;23.316;2024-02-23T02:12:04;1.50;;;1.40;;
65636;SDS011;52327;42.622;23.316;2024-02-23T02:14:32;1.63;;;1.42;;
65636;SDS011;52327;42.622;23.316;2024-02-23T02:16:58;2.58;;;1.30;;
65636;SDS011;52327;42.622;23.316;2024-02-23T02:19:27;2.10;;;1.90;;
65636;SDS011;52327;42.622;23.316;2024-02-23T02:21:55;2.45;;;1.48;;
65636;SDS011;52327;42.622;23.316;2024-02-23T02:24:21;2.25;;;1.50;;
65636;SDS011;52327;42.622;23.316;2024-02-23T02:26:49;2.33;;;2.05;;
65636;SDS011;52327;42.622;23.316;2024-02-23T02:29:17;2.92;;;1.55;;
65636;SDS011;52327;42.622;23.316;2024-02-23T02:31:42;1.63;;;1.52;;
65636;SDS011;52327;42.622;23.316;2024-02-23T02:34:08;2.17;;;1.95;;
65636;SDS011;52327;42.622;23.316;2024-02-23T02:36:41;2.33;;;1.73;;
65636;SDS011;52327;42.622;23.316;2024-02-23T02:39:06;3.35;;;1.73;;
65636;SDS011;52327;42.622;23.316;2024-02-23T02:41:43;1.30;;;0.95;;
65636;SDS011;52327;42.622;23.316;2024-02-23T02:44:12;10.13;;;2.55;;
65636;SDS011;52327;42.622;23.316;2024-02-23T02:46:41;1.77;;;1.58;;
65636;SDS011;52327;42.622;23.316;2024-02-23T02:49:12;4.63;;;1.65;;
65636;SDS011;52327;42.622;23.316;2024-02-23T02:51:37;1.20;;;1.10;;
65636;SDS011;52327;42.622;23.316;2024-02-23T02:54:03;2.35;;;1.48;;
65636;SDS011;52327;42.622;23.316;2024-02-23T02:56:32;4.78;;;2.58;;
65636;SDS011;52327;42.622;23.316;2024-02-23T02:58:57;2.65;;;1.85;;
65636;SDS011;52327;42.622;23.316;2024-02-23T03:01:39;2.72;;;1.50;;
65636;SDS011;52327;42.622;23.316;2024-02-23T03:04:04;3.00;;;1.83;;
65636;SDS011;52327;42.622;23.316;2024-02-23T03:06:33;2.97;;;1.10;;
65636;SDS011;52327;42.622;23.316;2024-02-23T03:08:58;2.55;;;1.35;;
65636;SDS011;52327;42.622;23.316;2024-02-23T03:11:24;0.77;;;0.77;;
65636;SDS011;52327;42.622;23.316;2024-02-23T03:13:49;2.22;;;1.67;;
65636;SDS011;52327;42.622;23.316;2024-02-23T03:16:18;1.13;;;1.02;;
65636;SDS011;52327;42.622;23.316;2024-02-23T03:18:48;2.85;;;1.30;;
65636;SDS011;52327;42.622;23.316;2024-02-23T03:21:21;3.40;;;2.05;;
65636;SDS011;52327;42.622;23.316;2024-02-23T03:23:46;2.22;;;1.58;;
65636;SDS011;52327;42.622;23.316;2024-02-23T03:26:18;2.58;;;1.65;;
65636;SDS011;52327;42.622;23.316;2024-02-23T03:28:46;1.48;;;1.38;;
65636;SDS011;52327;42.622;23.316;2024-02-23T03:31:14;2.28;;;1.48;;
65636;SDS011;52327;42.622;23.316;2024-02-23T03:33:42;3.58;;;2.55;;
65636;SDS011;52327;42.622;23.316;2024-02-23T03:36:08;2.33;;;2.08;;
65636;SDS011;52327;42.622;23.316;2024-02-23T03:38:39;2.63;;;1.40;;
65636;SDS011;52327;42.622;23.316;2024-02-23T03:41:05;3.28;;;1.48;;
65636;SDS011;52327;42.622;23.316;2024-02-23T03:43:37;2.05;;;1.42;;
65636;SDS011;52327;42.622;23.316;2024-02-23T03:46:30;2.95;;;1.10;;
65636;SDS011;52327;42.622;23.316;2024-02-23T03:48:56;1.08;;;1.00;;
65636;SDS011;52327;42.622;23.316;2024-02-23T03:51:34;2.53;;;1.52;;
65636;SDS011;52327;42.622;23.316;2024-02-23T03:54:04;2.30;;;1.98;;
65636;SDS011;52327;42.622;23.316;2024-02-23T03:56:38;1.63;;;1.25;;
65636;SDS011;52327;42.622;23.316;2024-02-23T03:59:06;1.73;;;1.08;;
65636;SDS011;52327;42.622;23.316;2024-02-23T04:01:40;2.33;;;2.13;;
65636;SDS011;52327;42.622;23.316;2024-02-23T04:04:10;1.88;;;1.58;;
65636;SDS011;52327;42.622;23.316;2024-02-23T04:06:35;3.30;;;1.92;;
65636;SDS011;52327;42.622;23.316;2024-02-23T04:09:04;1.48;;;1.17;;
65636;SDS011;52327;42.622;23.316;2024-02-23T04:11:30;1.80;;;1.48;;
65636;SDS011;52327;42.622;23.316;2024-02-23T04:13:56;1.65;;;1.55;;
65636;SDS011;52327;42.622;23.316;2024-02-23T04:16:32;1.75;;;1.27;;
65636;SDS011;52327;42.622;23.316;2024-02-23T04:18:58;5.47;;;1.98;;
65636;SDS011;52327;42.622;23.316;2024-02-23T04:21:24;1.55;;;1.40;;
65636;SDS011;52327;42.622;23.316;2024-02-23T04:23:50;1.63;;;1.02;;
65636;SDS011;52327;42.622;23.316;2024-02-23T04:26:21;2.10;;;1.20;;
65636;SDS011;52327;42.622;23.316;2024-02-23T04:28:51;0.90;;;0.85;;
65636;SDS011;52327;42.622;23.316;2024-02-23T04:31:17;1.27;;;1.10;;
65636;SDS011;52327;42.622;23.316;2024-02-23T04:33:59;1.23;;;1.13;;
65636;SDS011;52327;42.622;23.316;2024-02-23T04:36:33;2.95;;;2.25;;
65636;SDS011;52327;42.622;23.316;2024-02-23T04:38:58;4.45;;;1.80;;
65636;SDS011;52327;42.622;23.316;2024-02-23T04:41:24;2.33;;;1.48;;
65636;SDS011;52327;42.622;23.316;2024-02-23T04:43:55;5.07;;;2.53;;
65636;SDS011;52327;42.622;23.316;2024-02-23T04:46:25;3.55;;;1.58;;
65636;SDS011;52327;42.622;23.316;2024-02-23T04:48:58;1.33;;;1.00;;
65636;SDS011;52327;42.622;23.316;2024-02-23T04:51:27;1.33;;;1.23;;
65636;SDS011;52327;42.622;23.316;2024-02-23T04:53:58;0.80;;;0.80;;
65636;SDS011;52327;42.622;23.316;2024-02-23T04:56:26;4.00;;;1.95;;
65636;SDS011;52327;42.622;23.316;2024-02-23T04:58:52;3.08;;;1.90;;
65636;SDS011;52327;42.622;23.316;2024-02-23T05:01:21;2.75;;;1.92;;
65636;SDS011;52327;42.622;23.316;2024-02-23T05:03:51;1.65;;;1.13;;
65636;SDS011;52327;42.622;23.316;2024-02-23T05:06:23;2.55;;;1.65;;
65636;SDS011;52327;42.622;23.316;2024-02-23T05:09:05;2.25;;;1.45;;
65636;SDS011;52327;42.622;23.316;2024-02-23T05:11:34;2.08;;;1.85;;
65636;SDS011;52327;42.622;23.316;2024-02-23T05:13:59;3.67;;;2.25;;
65636;SDS011;52327;42.622;23.316;2024-02-23T05:16:25;1.60;;;1.42;;
65636;SDS011;52327;42.622;23.316;2024-02-23T05:18:51;1.40;;;1.10;;
65636;SDS011;52327;42.622;23.316;2024-02-23T05:21:18;1.20;;;1.10;;
65636;SDS011;52327;42.622;23.316;2024-02-23T05:23:47;2.15;;;1.40;;
65636;SDS011;52327;42.622;23.316;2024-02-23T05:26:12;3.65;;;1.90;;
65636;SDS011;52327;42.622;23.316;2024-02-23T05:28:38;3.85;;;2.35;;
65636;SDS011;52327;42.622;23.316;2024-02-23T05:31:03;1.60;;;1.50;;
65636;SDS011;52327;42.622;23.316;2024-02-23T05:33:29;2.15;;;1.75;;
65636;SDS011;52327;42.622;23.316;2024-02-23T05:35:55;7.03;;;3.50;;
65636;SDS011;52327;42.622;23.316;2024-02-23T05:38:20;2.72;;;1.35;;
65636;SDS011;52327;42.622;23.316;2024-02-23T05:40:49;2.78;;;1.63;;
65636;SDS011;52327;42.622;23.316;2024-02-23T05:43:14;1.95;;;1.15;;
65636;SDS011;52327;42.622;23.316;2024-02-23T05:45:40;4.00;;;1.05;;
65636;SDS011;52327;42.622;23.316;2024-02-23T05:50:45;2.00;;;1.48;;
65636;SDS011;52327;42.622;23.316;2024-02-23T05:53:16;6.90;;;2.08;;
65636;SDS011;52327;42.622;23.316;2024-02-23T05:55:41;1.77;;;1.13;;
65636;SDS011;52327;42.622;23.316;2024-02-23T05:58:10;1.60;;;1.38;;
65636;SDS011;52327;42.622;23.316;2024-02-23T06:00:35;1.55;;;1.40;;
65636;SDS011;52327;42.622;23.316;2024-02-23T06:03:01;1.50;;;1.33;;
65636;SDS011;52327;42.622;23.316;2024-02-23T06:05:29;1.95;;;1.15;;
65636;SDS011;52327;42.622;23.316;2024-02-23T06:07:55;1.98;;;1.65;;
65636;SDS011;52327;42.622;23.316;2024-02-23T06:10:20;1.67;;;1.55;;
65636;SDS011;52327;42.622;23.316;2024-02-23T06:12:45;1.40;;;1.30;;
65636;SDS011;52327;42.622;23.316;2024-02-23T06:15:11;1.13;;;1.02;;
65636;SDS011;52327;42.622;23.316;2024-02-23T06:17:37;0.85;;;0.85;;
65636;SDS011;52327;42.622;23.316;2024-02-23T06:20:04;1.80;;;1.65;;
65636;SDS011;52327;42.622;23.316;2024-02-23T06:22:30;1.58;;;1.00;;
65636;SDS011;52327;42.622;23.316;2024-02-23T06:24:57;1.60;;;1.20;;
65636;SDS011;52327;42.622;23.316;2024-02-23T06:27:23;4.32;;;2.45;;
65636;SDS011;52327;42.622;23.316;2024-02-23T06:29:50;1.85;;;1.48;;
65636;SDS011;52327;42.622;23.316;2024-02-23T06:32:15;3.40;;;1.80;;
65636;SDS011;52327;42.622;23.316;2024-02-23T06:34:41;1.60;;;1.20;;
65636;SDS011;52327;42.622;23.316;2024-02-23T06:37:06;2.72;;;1.30;;
65636;SDS011;52327;42.622;23.316;2024-02-23T06:39:32;3.33;;;2.15;;
65636;SDS011;52327;42.622;23.316;2024-02-23T06:41:57;2.08;;;1.88;;
65636;SDS011;52327;42.622;23.316;2024-02-23T06:44:25;3.72;;;2.00;;
65636;SDS011;52327;42.622;23.316;2024-02-23T06:46:51;3.15;;;2.05;;
65636;SDS011;52327;42.622;23.316;2024-02-23T06:49:16;2.67;;;1.90;;
65636;SDS011;52327;42.622;23.316;2024-02-23T06:51:42;2.17;;;1.90;;
65636;SDS011;52327;42.622;23.316;2024-02-23T06:54:07;3.00;;;1.95;;
65636;SDS011;52327;42.622;23.316;2024-02-23T06:56:33;1.92;;;1.63;;
65636;SDS011;52327;42.622;23.316;2024-02-23T06:58:59;1.65;;;1.38;;
65636;SDS011;52327;42.622;23.316;2024-02-23T07:01:25;2.55;;;1.83;;
65636;SDS011;52327;42.622;23.316;2024-02-23T07:03:50;1.58;;;1.10;;
65636;SDS011;52327;42.622;23.316;2024-02-23T07:06:16;2.78;;;1.92;;
65636;SDS011;52327;42.622;23.316;2024-02-23T07:08:43;2.75;;;1.88;;
65636;SDS011;52327;42.622;23.316;2024-02-23T07:11:09;2.00;;;1.85;;
65636;SDS011;52327;42.622;23.316;2024-02-23T07:13:35;3.03;;;2.33;;
65636;SDS011;52327;42.622;23.316;2024-02-23T07:16:00;2.63;;;1.42;;
65636;SDS011;52327;42.622;23.316;2024-02-23T07:18:26;2.50;;;1.75;;
65636;SDS011;52327;42.622;23.316;2024-02-23T07:20:51;2.13;;;1.92;;
65636;SDS011;52327;42.622;23.316;2024-02-23T07:23:16;3.92;;;1.65;;
65636;SDS011;52327;42.622;23.316;2024-02-23T07:25:42;1.77;;;1.67;;
65636;SDS011;52327;42.622;23.316;2024-02-23T07:28:07;4.03;;;1.58;;
65636;SDS011;52327;42.622;23.316;2024-02-23T07:30:33;6.22;;;2.50;;
65636;SDS011;52327;42.622;23.316;2024-02-23T07:33:00;2.60;;;2.05;;
65636;SDS011;52327;42.622;23.316;2024-02-23T07:35:25;3.90;;;2.05;;
65636;SDS011;52327;42.622;23.316;2024-02-23T07:37:51;2.45;;;1.77;;
65636;SDS011;52327;42.622;23.316;2024-02-23T07:40:16;4.05;;;2.08;;
65636;SDS011;52327;42.622;23.316;2024-02-23T07:42:41;3.50;;;1.83;;
65636;SDS011;52327;42.622;23.316;2024-02-23T07:45:07;5.93;;;2.17;;
65636;SDS011;52327;42.622;23.316;2024-02-23T07:47:34;3.08;;;1.70;;
65636;SDS011;52327;42.622;23.316;2024-02-23T07:49:59;2.15;;;1.67;;
65636;SDS011;52327;42.622;23.316;2024-02-23T07:52:25;3.67;;;2.15;;
65636;SDS011;52327;42.622;23.316;2024-02-23T07:54:51;1.98;;;1.35;;
65636;SDS011;52327;42.622;23.316;2024-02-23T07:57:18;3.35;;;2.45;;
65636;SDS011;52327;42.622;23.316;2024-02-23T07:59:44;3.05;;;2.17;;
65636;SDS011;52327;42.622;23.316;2024-02-23T08:02:09;5.70;;;2.13;;
65636;SDS011;52327;42.622;23.316;2024-02-23T08:04:35;2.90;;;2.53;;
65636;SDS011;52327;42.622;23.316;2024-02-23T08:07:01;3.53;;;1.67;;
65636;SDS011;52327;42.622;23.316;2024-02-23T08:09:26;2.20;;;1.95;;
65636;SDS011;52327;42.622;23.316;2024-02-23T08:11:52;2.35;;;1.83;;
65636;SDS011;52327;42.622;23.316;2024-02-23T08:14:17;2.88;;;1.98;;
65636;SDS011;52327;42.622;23.316;2024-02-23T08:16:42;4.85;;;2.50;;
65636;SDS011;52327;42.622;23.316;2024-02-23T08:19:08;4.88;;;2.47;;
65636;SDS011;52327;42.622;23.316;2024-02-23T08:21:33;3.28;;;2.38;;
65636;SDS011;52327;42.622;23.316;2024-02-23T08:23:59;3.33;;;2.95;;
65636;SDS011;52327;42.622;23.316;2024-02-23T08:26:24;3.63;;;2.28;;
65636;SDS011;52327;42.622;23.316;2024-02-23T08:28:49;5.63;;;3.22;;
65636;SDS011;52327;42.622;23.316;2024-02-23T08:31:15;6.03;;;3.40;;
65636;SDS011;52327;42.622;23.316;2024-02-23T08:33:41;2.97;;;2.63;;
65636;SDS011;52327;42.622;23.316;2024-02-23T08:36:07;2.03;;;1.58;;
65636;SDS011;52327;42.622;23.316;2024-02-23T08:38:32;3.92;;;1.40;;
65636;SDS011;52327;42.622;23.316;2024-02-23T08:40:58;3.60;;;2.65;;
65636;SDS011;52327;42.622;23.316;2024-02-23T08:43:23;4.55;;;2.58;;
65636;SDS011;52327;42.622;23.316;2024-02-23T08:45:49;3.42;;;2.47;;
65636;SDS011;52327;42.622;23.316;2024-02-23T08:48:14;5.70;;;3.00;;
65636;SDS011;52327;42.622;23.316;2024-02-23T08:50:40;5.57;;;3.92;;
65636;SDS011;52327;42.622;23.316;2024-02-23T08:53:05;4.78;;;2.40;;
65636;SDS011;52327;42.622;23.316;2024-02-23T08:55:31;5.93;;;3.08;;
65636;SDS011;52327;42.622;23.316;2024-02-23T08:57:58;3.45;;;2.30;;
65636;SDS011;52327;42.622;23.316;2024-02-23T09:00:23;3.15;;;2.58;;
65636;SDS011;52327;42.622;23.316;2024-02-23T09:03:07;4.35;;;3.05;;
65636;SDS011;52327;42.622;23.316;2024-02-23T09:05:33;6.05;;;2.50;;
65636;SDS011;52327;42.622;23.316;2024-02-23T09:07:58;4.68;;;2.45;;
65636;SDS011;52327;42.622;23.316;2024-02-23T09:10:23;5.97;;;2.30;;
65636;SDS011;52327;42.622;23.316;2024-02-23T09:12:49;3.30;;;2.08;;
65636;SDS011;52327;42.622;23.316;2024-02-23T09:15:14;2.80;;;2.15;;
65636;SDS011;52327;42.622;23.316;2024-02-23T09:17:40;2.80;;;2.22;;
65636;SDS011;52327;42.622;23.316;2024-02-23T09:20:06;4.28;;;2.40;;
65636;SDS011;52327;42.622;23.316;2024-02-23T09:22:32;3.10;;;1.88;;
65636;SDS011;52327;42.622;23.316;2024-02-23T09:24:58;2.80;;;1.73;;
65636;SDS011;52327;42.622;23.316;2024-02-23T09:27:23;5.13;;;2.53;;
65636;SDS011;52327;42.622;23.316;2024-02-23T09:29:49;2.35;;;1.77;;
65636;SDS011;52327;42.622;23.316;2024-02-23T09:32:14;2.83;;;1.90;;
65636;SDS011;52327;42.622;23.316;2024-02-23T09:34:39;2.95;;;2.03;;
65636;SDS011;52327;42.622;23.316;2024-02-23T09:37:05;3.28;;;2.03;;
65636;SDS011;52327;42.622;23.316;2024-02-23T09:39:30;5.82;;;2.47;;
65636;SDS011;52327;42.622;23.316;2024-02-23T09:41:56;1.60;;;1.50;;
65636;SDS011;52327;42.622;23.316;2024-02-23T09:44:22;1.60;;;1.35;;
65636;SDS011;52327;42.622;23.316;2024-02-23T09:46:48;1.58;;;1.17;;
65636;SDS011;52327;42.622;23.316;2024-02-23T09:49:17;2.05;;;1.45;;
65636;SDS011;52327;42.622;23.316;2024-02-23T09:51:43;3.88;;;1.77;;
65636;SDS011;52327;42.622;23.316;2024-02-23T09:54:08;4.53;;;1.00;;
65636;SDS011;52327;42.622;23.316;2024-02-23T09:56:34;1.35;;;0.95;;
65636;SDS011;52327;42.622;23.316;2024-02-23T09:59:02;1.00;;;0.73;;
65636;SDS011;52327;42.622;23.316;2024-02-23T10:01:29;0.98;;;0.65;;
65636;SDS011;52327;42.622;23.316;2024-02-23T10:03:56;2.63;;;1.35;;
65636;SDS011;52327;42.622;23.316;2024-02-23T10:06:23;3.95;;;1.55;;
65636;SDS011;52327;42.622;23.316;2024-02-23T10:08:50;1.85;;;1.63;;
65636;SDS011;52327;42.622;23.316;2024-02-23T10:11:17;1.45;;;0.93;;
65636;SDS011;52327;42.622;23.316;2024-02-23T10:13:44;1.92;;;1.52;;
65636;SDS011;52327;42.622;23.316;2024-02-23T10:16:09;3.00;;;1.50;;
65636;SDS011;52327;42.622;23.316;2024-02-23T10:18:37;3.92;;;1.58;;
65636;SDS011;52327;42.622;23.316;2024-02-23T10:21:04;1.93;;;1.30;;
65636;SDS011;52327;42.622;23.316;2024-02-23T10:23:30;1.95;;;0.65;;
65636;SDS011;52327;42.622;23.316;2024-02-23T10:25:55;1.98;;;1.08;;
65636;SDS011;52327;42.622;23.316;2024-02-23T10:28:21;0.70;;;0.60;;
65636;SDS011;52327;42.622;23.316;2024-02-23T10:30:47;1.83;;;0.90;;
65636;SDS011;52327;42.622;23.316;2024-02-23T10:33:13;0.98;;;0.70;;
65636;SDS011;52327;42.622;23.316;2024-02-23T10:35:39;0.88;;;0.80;;
65636;SDS011;52327;42.622;23.316;2024-02-23T10:38:08;1.48;;;0.88;;
65636;SDS011;52327;42.622;23.316;2024-02-23T10:40:37;1.38;;;0.90;;
65636;SDS011;52327;42.622;23.316;2024-02-23T10:43:05;0.50;;;0.50;;
65636;SDS011;52327;42.622;23.316;2024-02-23T10:45:41;1.20;;;0.82;;
65636;SDS011;52327;42.622;23.316;2024-02-23T10:48:09;1.25;;;0.93;;
65636;SDS011;52327;42.622;23.316;2024-02-23T10:50:36;0.85;;;0.60;;
65636;SDS011;52327;42.622;23.316;2024-02-23T10:53:04;1.48;;;0.70;;
65636;SDS011;52327;42.622;23.316;2024-02-23T10:55:32;0.50;;;0.43;;
65636;SDS011;52327;42.622;23.316;2024-02-23T10:58:00;0.88;;;0.40;;
65636;SDS011;52327;42.622;23.316;2024-02-23T11:00:28;0.95;;;0.65;;
65636;SDS011;52327;42.622;23.316;2024-02-23T11:02:54;1.65;;;0.68;;
65636;SDS011;52327;42.622;23.316;2024-02-23T11:05:20;0.65;;;0.50;;
65636;SDS011;52327;42.622;23.316;2024-02-23T11:07:47;2.85;;;1.30;;
65636;SDS011;52327;42.622;23.316;2024-02-23T11:10:16;1.13;;;0.50;;
65636;SDS011;52327;42.622;23.316;2024-02-23T11:12:43;0.73;;;0.73;;
65636;SDS011;52327;42.622;23.316;2024-02-23T11:15:09;0.80;;;0.40;;
65636;SDS011;52327;42.622;23.316;2024-02-23T11:17:36;0.73;;;0.52;;
65636;SDS011;52327;42.622;23.316;2024-02-23T11:20:05;0.33;;;0.33;;
65636;SDS011;52327;42.622;23.316;2024-02-23T11:22:33;0.82;;;0.60;;
65636;SDS011;52327;42.622;23.316;2024-02-23T11:25:06;0.80;;;0.65;;
65636;SDS011;52327;42.622;23.316;2024-02-23T11:27:36;1.40;;;0.75;;
65636;SDS011;52327;42.622;23.316;2024-02-23T11:30:04;1.75;;;0.85;;
65636;SDS011;52327;42.622;23.316;2024-02-23T11:32:37;0.38;;;0.38;;
65636;SDS011;52327;42.622;23.316;2024-02-23T11:35:12;1.75;;;1.13;;
65636;SDS011;52327;42.622;23.316;2024-02-23T11:40:14;0.38;;;0.32;;
65636;SDS011;52327;42.622;23.316;2024-02-23T11:42:42;0.98;;;0.68;;
65636;SDS011;52327;42.622;23.316;2024-02-23T11:45:08;1.40;;;0.73;;
65636;SDS011;52327;42.622;23.316;2024-02-23T11:47:36;0.60;;;0.60;;
65636;SDS011;52327;42.622;23.316;2024-02-23T11:50:02;2.03;;;1.58;;
65636;SDS011;52327;42.622;23.316;2024-02-23T11:52:27;1.25;;;0.85;;
65636;SDS011;52327;42.622;23.316;2024-02-23T11:54:53;1.75;;;1.58;;
65636;SDS011;52327;42.622;23.316;2024-02-23T11:57:18;0.63;;;0.60;;
65636;SDS011;52327;42.622;23.316;2024-02-23T11:59:44;0.77;;;0.70;;
65636;SDS011;52327;42.622;23.316;2024-02-23T12:02:09;1.20;;;0.88;;
65636;SDS011;52327;42.622;23.316;2024-02-23T12:04:38;1.50;;;1.08;;
65636;SDS011;52327;42.622;23.316;2024-02-23T12:07:03;0.30;;;0.30;;
65636;SDS011;52327;42.622;23.316;2024-02-23T12:09:29;3.95;;;0.95;;
65636;SDS011;52327;42.622;23.316;2024-02-23T12:11:55;1.10;;;0.63;;
65636;SDS011;52327;42.622;23.316;2024-02-23T12:14:21;1.33;;;1.02;;
65636;SDS011;52327;42.622;23.316;2024-02-23T12:16:53;0.28;;;0.17;;
65636;SDS011;52327;42.622;23.316;2024-02-23T12:19:19;1.40;;;0.85;;
65636;SDS011;52327;42.622;23.316;2024-02-23T12:21:45;0.82;;;0.55;;
65636;SDS011;52327;42.622;23.316;2024-02-23T12:24:11;0.80;;;0.80;;
65636;SDS011;52327;42.622;23.316;2024-02-23T12:26:40;0.30;;;0.30;;
65636;SDS011;52327;42.622;23.316;2024-02-23T12:29:08;0.93;;;0.70;;
65636;SDS011;52327;42.622;23.316;2024-02-23T12:31:35;0.95;;;0.85;;
65636;SDS011;52327;42.622;23.316;2024-02-23T12:34:00;1.35;;;1.05;;
65636;SDS011;52327;42.622;23.316;2024-02-23T12:36:26;0.60;;;0.60;;
65636;SDS011;52327;42.622;23.316;2024-02-23T12:38:51;0.80;;;0.68;;
65636;SDS011;52327;42.622;23.316;2024-02-23T12:41:17;0.77;;;0.68;;
65636;SDS011;52327;42.622;23.316;2024-02-23T12:43:42;1.35;;;1.10;;
65636;SDS011;52327;42.622;23.316;2024-02-23T12:46:08;2.75;;;0.68;;
65636;SDS011;52327;42.622;23.316;2024-02-23T12:48:34;1.40;;;0.95;;
65636;SDS011;52327;42.622;23.316;2024-02-23T12:51:00;1.10;;;0.98;;
65636;SDS011;52327;42.622;23.316;2024-02-23T12:56:05;1.95;;;1.23;;
65636;SDS011;52327;42.622;23.316;2024-02-23T12:58:33;0.63;;;0.55;;
65636;SDS011;52327;42.622;23.316;2024-02-23T13:00:59;0.88;;;0.73;;
65636;SDS011;52327;42.622;23.316;2024-02-23T13:03:24;3.47;;;1.30;;
65636;SDS011;52327;42.622;23.316;2024-02-23T13:05:51;1.05;;;0.77;;
65636;SDS011;52327;42.622;23.316;2024-02-23T13:08:20;1.83;;;0.98;;
65636;SDS011;52327;42.622;23.316;2024-02-23T13:10:47;1.45;;;1.00;;
65636;SDS011;52327;42.622;23.316;2024-02-23T13:13:12;1.02;;;0.70;;
65636;SDS011;52327;42.622;23.316;2024-02-23T13:15:40;3.30;;;1.10;;
65636;SDS011;52327;42.622;23.316;2024-02-23T13:18:11;2.95;;;0.85;;
65636;SDS011;52327;42.622;23.316;2024-02-23T13:20:40;1.48;;;0.77;;
65636;SDS011;52327;42.622;23.316;2024-02-23T13:23:07;0.85;;;0.82;;
65636;SDS011;52327;42.622;23.316;2024-02-23T13:25:33;0.93;;;0.80;;
65636;SDS011;52327;42.622;23.316;2024-02-23T13:28:00;0.88;;;0.68;;
65636;SDS011;52327;42.622;23.316;2024-02-23T13:30:25;1.13;;;0.73;;
65636;SDS011;52327;42.622;23.316;2024-02-23T13:32:51;2.22;;;1.10;;
65636;SDS011;52327;42.622;23.316;2024-02-23T13:35:17;1.45;;;0.85;;
65636;SDS011;52327;42.622;23.316;2024-02-23T13:37:42;0.57;;;0.55;;
65636;SDS011;52327;42.622;23.316;2024-02-23T13:40:08;1.60;;;0.85;;
65636;SDS011;52327;42.622;23.316;2024-02-23T13:42:35;0.95;;;0.63;;
65636;SDS011;52327;42.622;23.316;2024-02-23T13:45:04;1.92;;;0.80;;
65636;SDS011;52327;42.622;23.316;2024-02-23T13:47:30;3.50;;;1.65;;
65636;SDS011;52327;42.622;23.316;2024-02-23T13:49:56;1.08;;;0.80;;
65636;SDS011;52327;42.622;23.316;2024-02-23T13:52:21;1.08;;;0.80;;
65636;SDS011;52327;42.622;23.316;2024-02-23T13:54:47;0.82;;;0.60;;
65636;SDS011;52327;42.622;23.316;2024-02-23T13:57:12;1.98;;;1.17;;
65636;SDS011;52327;42.622;23.316;2024-02-23T13:59:37;0.88;;;0.70;;
65636;SDS011;52327;42.622;23.316;2024-02-23T14:02:03;2.40;;;0.77;;
65636;SDS011;52327;42.622;23.316;2024-02-23T14:04:28;1.23;;;0.65;;
65636;SDS011;52327;42.622;23.316;2024-02-23T14:06:54;0.98;;;0.77;;
65636;SDS011;52327;42.622;23.316;2024-02-23T14:09:19;1.65;;;1.25;;
65636;SDS011;52327;42.622;23.316;2024-02-23T14:11:45;0.80;;;0.80;;
65636;SDS011;52327;42.622;23.316;2024-02-23T14:14:10;1.77;;;0.80;;
65636;SDS011;52327;42.622;23.316;2024-02-23T14:16:38;1.75;;;1.25;;
65636;SDS011;52327;42.622;23.316;2024-02-23T14:19:04;2.47;;;0.77;;
65636;SDS011;52327;42.622;23.316;2024-02-23T14:21:30;2.72;;;1.15;;
65636;SDS011;52327;42.622;23.316;2024-02-23T14:23:55;0.88;;;0.63;;
65636;SDS011;52327;42.622;23.316;2024-02-23T14:26:21;6.68;;;0.80;;
65636;SDS011;52327;42.622;23.316;2024-02-23T14:28:47;1.20;;;0.70;;
65636;SDS011;52327;42.622;23.316;2024-02-23T14:31:14;1.95;;;0.88;;
65636;SDS011;52327;42.622;23.316;2024-02-23T14:33:39;0.35;;;0.35;;
65636;SDS011;52327;42.622;23.316;2024-02-23T14:36:05;2.72;;;1.25;;
65636;SDS011;52327;42.622;23.316;2024-02-23T14:38:30;0.85;;;0.50;;
65636;SDS011;52327;42.622;23.316;2024-02-23T14:40:56;1.23;;;0.90;;
65636;SDS011;52327;42.622;23.316;2024-02-23T14:43:21;1.40;;;0.90;;